Meteo Giornale » Osservazioni meteo Stati Uniti (USA) » Watertown
ore: 14:53 - Osservazioni Meteo Watertown
Lat. 44° 54' N Lon. 97° 8' W Alt. 532 metri s.l.m.
26 °C
Nuvoloso
Temp. 24 Ore
12 °C
29 °C
Est
13 Km/h
Dew point 12 °C
Umidità 41 %
Visibilità 10 Km
Il sole sorge alle ore 06:51
Il sole tramonta alle ore 20:05
| Data e Ora | Cielo e Fenomeni | T °C | DP °C | Um. % | Pres. hPa | Vis. km | Vento km/h | |
|---|---|---|---|---|---|---|---|---|
| Oggi h: 14:53 | Nuvoloso | 26 | 12 | 41 | 1015 | 10 | E 13 | |
| Oggi h: 13:53 | Molto Nuvoloso | 27 | 12 | 39 | 1015 | 10 | E 9.3 | |
| Oggi h: 12:53 | Sereno | 25 | 11 | 41 | 1015 | 10 | NE 14.8 | |
| Oggi h: 11:53 | Sereno | 25 | 13 | 47 | 1015 | 10 | E 11.1 | |
| Oggi h: 10:53 | Sereno | 23 | 12 | 49 | 1016 | 10 | N 5.5 | |
| Oggi h: 09:53 | Sereno | 21 | 14 | 64 | 1016 | 10 | N 0 | |
| Oggi h: 08:53 | Sereno | 19 | 16 | 82 | 1016 | 10 | N 5.5 | |
| Oggi h: 07:53 | Sereno | 16 | 14 | 87 | 1016 | 10 | N 0 | |
| Oggi h: 06:53 | Sereno | 12 | 11 | 93 | 1015 | 10 | N 0 | |
| Oggi h: 05:53 | Sereno | 13 | 12 | 93 | 1015 | 10 | N 0 | |
| Oggi h: 04:53 | Sereno | 12 | 12 | 100 | 1014 | 11 | N 9.3 | |
| Oggi h: 03:53 | Sereno | 14 | 13 | 93 | 1014 | 10 | N 0 | |
| Oggi h: 02:53 | Sereno | 16 | 14 | 87 | 1014 | 10 | N 0 | |
| Oggi h: 01:53 | Sereno | 17 | 14 | 82 | 1015 | 10 | N 0 | |
| Oggi h: 00:53 | Sereno | 16 | 14 | 87 | 1015 | 10 | N 5.5 | |
| Ieri h: 23:53 | Sereno | 18 | 15 | 82 | 1015 | 10 | N 0 | |
| Ieri h: 22:53 | Sereno | 19 | 16 | 82 | 1015 | 10 | N 5.5 | |
| Ieri h: 21:53 | Sereno | 20 | 15 | 72 | 1014 | 10 | N 0 | |
| Ieri h: 20:53 | Sereno | 20 | 15 | 72 | 1014 | 10 | N 5.5 | |
| Ieri h: 19:53 | Sereno | 23 | 15 | 60 | 1014 | 10 | O/SO 9.3 | |
| Ieri h: 18:53 | Sereno | 26 | 14 | 47 | 1013 | 10 | S/SO 13 | |
| Ieri h: 17:53 | Sereno | 28 | 8 | 28 | 1013 | 10 | S/SO 13 | |
| Ieri h: 16:53 | Sereno | 29 | 8 | 26 | 1013 | 10 | S/SO 14.8 | |
| Ieri h: 15:53 | Sereno | 29 | 6 | 23 | 1014 | 10 | O/SO 13 | |



